Aviation Digital Data Service (ADDS)

Output produced by METARs form (1621 UTC 17 April 2014)
found at http://aviationweather.gov/adds/metars/
 
KBPT 171553Z 10009KT 10SM BKN110 16/11 A3015 RMK AO2 RAB22E33 SLP210 P0000 T01610111